Time;durP1;ratioP1;P1;durP2;ratioP2;P2;SDS_P1;SDS_P2;PMS_P1;PMS_P2;Temp;Humidity;BMP_temperature;BMP_pressure;BME280_temperature;BME280_humidity;BME280_pressure;Samples;Min_cycle;Max_cycle;Signal;HPM_P1;HPM_P2
2021/11/12 00:13:50;;;;;;;;;;;;;;;-1.49;78.30;102564.49;1971448;73;20119;-63
2021/11/12 00:16:24;;;;;;;;;;;;;;;-1.50;78.40;102561.42;1971481;73;20120;-63
2021/11/12 00:18:47;;;;;;;;;;;;;;;-1.53;78.59;102550.95;1970403;73;20155;-63
2021/11/12 00:21:15;;;;;;;;;;;;;;;-1.51;78.37;102554.48;1971460;73;20107;-63
2021/11/12 00:23:43;;;;;;;;;;;;;;;-1.49;78.18;102555.45;1971405;73;20150;-63
2021/11/12 00:26:11;;;;;;;;;;;;;;;-1.48;78.39;102554.61;1971562;73;20099;-63
2021/11/12 00:28:49;;;;;;;;;;;;;;;-1.50;78.61;102553.67;1971587;73;20100;-62
2021/11/12 00:38:57;;;;;;;;;;;;;;;-1.61;78.45;102542.48;1961139;73;20112;-63
2021/11/12 00:43:55;;;;;;;;;;;;;;;-1.68;78.61;102534.02;1961242;73;20112;-62
2021/11/12 00:47:19;;;;;;;;;;;;;;;-1.68;78.76;102530.14;1961200;73;20100;-62
2021/11/12 00:48:54;;;;;;;;;;;;;;;-1.68;79.03;102522.39;1941492;73;20190;-62
2021/11/12 00:53:56;;;;;;;;;;;;;;;-1.66;79.32;102514.33;1961214;73;20367;-63
2021/11/12 00:56:24;;;;;;;;;;;;;;;-1.68;79.22;102517.23;1960507;73;20150;-63
2021/11/12 00:58:53;;;;;;;;;;;;;;;-1.69;79.07;102520.66;1961123;73;20366;-63
2021/11/12 01:01:22;;;;;;;;;;;;;;;-1.71;79.21;102514.55;1960974;73;20371;-63
2021/11/12 01:03:51;;;;;;;;;;;;;;;-1.67;79.09;102512.55;1961056;73;20383;-64
2021/11/12 01:06:19;;;;;;;;;;;;;;;-1.66;79.21;102514.33;1961160;73;20408;-63
2021/11/12 01:08:47;;;;;;;;;;;;;;;-1.64;79.50;102515.27;1961104;73;20207;-63
2021/11/12 01:11:16;;;;;;;;;;;;;;;-1.65;79.39;102511.33;1961129;73;20195;-63
2021/11/12 01:13:46;;;;;;;;;;;;;;;-1.64;79.57;102504.94;1961036;73;20131;-65
2021/11/12 01:16:13;;;;;;;;;;;;;;;-1.63;79.67;102501.52;1961096;73;20383;-63
2021/11/12 01:18:41;;;;;;;;;;;;;;;-1.63;79.61;102505.39;1961103;73;20146;-63
2021/11/12 01:21:10;;;;;;;;;;;;;;;-1.65;79.89;102501.86;1961098;73;20100;-63
2021/11/12 01:23:39;;;;;;;;;;;;;;;-1.63;79.66;102501.52;1961078;73;20146;-63
2021/11/12 01:26:07;;;;;;;;;;;;;;;-1.61;79.54;102504.16;1961127;73;20155;-64
2021/11/12 01:28:35;;;;;;;;;;;;;;;-1.57;79.32;102500.87;1961088;73;20183;-64
2021/11/12 01:31:03;;;;;;;;;;;;;;;-1.54;79.44;102501.00;1968290;73;20112;-63
2021/11/12 01:33:32;;;;;;;;;;;;;;;-1.53;79.57;102490.25;1971445;73;20120;-63
2021/11/12 01:36:11;;;;;;;;;;;;;;;-1.54;79.73;102493.67;1971445;73;20178;-63
2021/11/12 01:38:31;;;;;;;;;;;;;;;-1.58;79.93;102487.08;1968938;73;20116;-63
2021/11/12 01:41:00;;;;;;;;;;;;;;;-1.59;80.19;102481.43;1971297;73;20108;-63
2021/11/12 01:43:36;;;;;;;;;;;;;;;-1.56;80.13;102478.97;1971600;73;20359;-63
2021/11/12 01:48:57;;;;;;;;;;;;;;;-1.55;80.02;102479.84;1971537;73;20136;-63
2021/11/12 01:56:47;;;;;;;;;;;;;;;-1.57;79.91;102497.90;1971423;73;20111;-62
2021/11/12 01:59:16;;;;;;;;;;;;;;;-1.61;79.86;102489.53;1969721;73;20099;-63
2021/11/12 02:01:46;;;;;;;;;;;;;;;-1.63;80.21;102492.47;1971331;73;20104;-64
2021/11/12 02:04:18;;;;;;;;;;;;;;;-1.63;80.06;102489.89;1971433;73;20111;-63
2021/11/12 02:06:46;;;;;;;;;;;;;;;-1.64;79.97;102490.73;1971449;73;20112;-63
2021/11/12 02:09:20;;;;;;;;;;;;;;;-1.64;80.00;102491.11;1971455;73;20142;-63
2021/11/12 02:11:46;;;;;;;;;;;;;;;-1.62;80.00;102482.62;1970315;73;20146;-63
2021/11/12 02:14:15;;;;;;;;;;;;;;;-1.60;79.97;102468.06;1971345;73;20354;-64
2021/11/12 02:16:47;;;;;;;;;;;;;;;-1.59;79.97;102477.55;1971457;73;20342;-62
2021/11/12 02:19:13;;;;;;;;;;;;;;;-1.60;79.89;102473.23;1970891;73;20116;-64
2021/11/12 02:21:52;;;;;;;;;;;;;;;-1.60;79.93;102473.23;1971554;73;20419;-63
2021/11/12 02:24:17;;;;;;;;;;;;;;;-1.60;79.97;102482.69;1970766;73;20116;-63
2021/11/12 02:26:53;;;;;;;;;;;;;;;-1.57;80.03;102479.81;1971364;73;20378;-62
2021/11/12 02:29:16;;;;;;;;;;;;;;;-1.52;80.18;102484.27;1969871;73;20104;-62
2021/11/12 02:31:44;;;;;;;;;;;;;;;-1.51;79.97;102487.30;1971351;73;20154;-63
2021/11/12 02:34:14;;;;;;;;;;;;;;;-1.54;80.07;102477.75;1971457;73;20149;-63
2021/11/12 02:36:42;;;;;;;;;;;;;;;-1.59;80.12;102475.39;1971415;73;20409;-63
2021/11/12 02:39:11;;;;;;;;;;;;;;;-1.62;80.13;102473.58;1971363;73;20217;-63
2021/11/12 02:41:39;;;;;;;;;;;;;;;-1.58;79.98;102479.33;1971428;73;20120;-63
2021/11/12 02:44:07;;;;;;;;;;;;;;;-1.53;79.88;102481.20;1971542;73;20111;-63
2021/11/12 02:46:35;;;;;;;;;;;;;;;-1.51;80.15;102474.39;1971407;73;20116;-62
2021/11/12 02:49:03;;;;;;;;;;;;;;;-1.48;80.51;102475.39;1971516;73;20107;-63
2021/11/12 02:51:33;;;;;;;;;;;;;;;-1.45;80.41;102476.81;1971517;73;20116;-63
2021/11/12 02:54:02;;;;;;;;;;;;;;;-1.45;80.60;102466.47;1971472;73;20183;-63
2021/11/12 02:56:31;;;;;;;;;;;;;;;-1.42;80.39;102469.57;1971660;73;20146;-63
2021/11/12 02:59:02;;;;;;;;;;;;;;;-1.39;80.18;102473.58;1971593;73;20103;-62
2021/11/12 03:01:32;;;;;;;;;;;;;;;-1.38;80.23;102470.19;1971486;73;20123;-63
2021/11/12 03:04:00;;;;;;;;;;;;;;;-1.36;80.23;102465.95;1971507;73;20115;-63
2021/11/12 03:06:29;;;;;;;;;;;;;;;-1.36;80.09;102465.95;1971418;73;20159;-63
2021/11/12 03:09:05;;;;;;;;;;;;;;;-1.37;80.32;102452.55;1971618;73;20111;-63
2021/11/12 03:11:33;;;;;;;;;;;;;;;-1.37;80.31;102456.00;1971747;73;20115;-63
2021/11/12 03:14:01;;;;;;;;;;;;;;;-1.38;80.26;102465.02;1971565;73;20137;-63
2021/11/12 03:16:30;;;;;;;;;;;;;;;-1.39;80.24;102459.36;1971537;73;20116;-61
2021/11/12 03:18:59;;;;;;;;;;;;;;;-1.39;80.28;102450.31;1971445;73;20155;-62
2021/11/12 03:21:28;;;;;;;;;;;;;;;-1.39;80.69;102452.91;1971497;73;20355;-62
2021/11/12 03:24:00;;;;;;;;;;;;;;;-1.38;80.72;102450.80;1971580;73;20100;-62
2021/11/12 03:26:46;;;;;;;;;;;;;;;-1.38;80.55;102455.97;1970986;73;20115;-62
2021/11/12 03:29:57;;;;;;;;;;;;;;;-1.39;80.62;102458.07;1970528;73;20115;-63
2021/11/12 04:01:56;;;;;;;;;;;;;;;-1.29;80.37;102442.10;1961244;73;20366;-62
2021/11/12 04:04:32;;;;;;;;;;;;;;;-1.27;80.23;102439.55;1960774;73;20112;-63
2021/11/12 04:20:58;;;;;;;;;;;;;;;-1.23;80.79;102433.27;1961270;73;20138;-62
2021/11/12 04:40:18;;;;;;;;;;;;;;;-0.94;80.64;102443.80;1961134;73;20120;-62
2021/11/12 05:12:39;;;;;;;;;;;;;;;1.07;78.65;102445.75;1961057;73;20158;-62
2021/11/12 05:44:40;;;;;;;;;;;;;;;6.52;71.01;102428.11;1961114;73;20191;-63
2021/11/12 05:55:09;;;;;;;;;;;;;;;7.72;65.57;102417.89;1961147;73;20479;-63
2021/11/12 05:57:38;;;;;;;;;;;;;;;8.09;64.08;102415.68;1961121;73;20142;-63
2021/11/12 06:00:07;;;;;;;;;;;;;;;8.53;63.80;102408.59;1961137;73;20374;-63
2021/11/12 06:02:35;;;;;;;;;;;;;;;8.77;62.06;102411.11;1961127;73;20108;-63
2021/11/12 06:05:04;;;;;;;;;;;;;;;9.07;61.17;102407.46;1961093;73;20112;-62
2021/11/12 06:07:31;;;;;;;;;;;;;;;9.43;60.81;102406.77;1961109;73;20139;-63
2021/11/12 06:09:59;;;;;;;;;;;;;;;9.84;59.94;102408.62;1960983;73;20155;-63
2021/11/12 06:12:27;;;;;;;;;;;;;;;10.11;58.59;102401.35;1961082;73;20139;-62
2021/11/12 06:14:55;;;;;;;;;;;;;;;10.48;58.69;102399.20;1961091;73;20103;-62
2021/11/12 06:17:24;;;;;;;;;;;;;;;10.75;57.44;102398.41;1853796;76;20115;-63
2021/11/12 06:19:52;;;;;;;;;;;;;;;10.93;56.71;102390.70;1852914;77;20146;-63
2021/11/12 06:22:20;;;;;;;;;;;;;;;11.18;55.50;102390.77;1852891;77;20112;-63
2021/11/12 06:24:48;;;;;;;;;;;;;;;11.44;55.47;102380.27;1852888;77;20146;-63
2021/11/12 06:27:16;;;;;;;;;;;;;;;11.66;54.82;102386.50;1852903;77;20120;-63
2021/11/12 06:29:43;;;;;;;;;;;;;;;11.82;54.39;102381.34;1852882;77;20103;-63
2021/11/12 06:32:11;;;;;;;;;;;;;;;12.31;54.69;102382.23;1852876;77;20119;-63
2021/11/12 06:34:39;;;;;;;;;;;;;;;12.94;54.81;102381.74;1852896;77;20159;-63
2021/11/12 06:37:07;;;;;;;;;;;;;;;13.27;53.24;102374.39;1852943;77;20149;-63
2021/11/12 06:39:35;;;;;;;;;;;;;;;13.74;53.65;102372.37;1852861;77;20131;-63
2021/11/12 06:42:11;;;;;;;;;;;;;;;14.41;53.39;102362.99;1853059;77;20398;-63
2021/11/12 07:04:08;;;;;;;;;;;;;;;17.30;50.01;102353.33;1852762;77;20135;-63
2021/11/12 07:06:36;;;;;;;;;;;;;;;17.89;49.67;102344.17;1852942;77;20124;-63
2021/11/12 07:09:06;;;;;;;;;;;;;;;17.82;46.82;102341.38;1852872;77;20115;-63
2021/11/12 07:11:35;;;;;;;;;;;;;;;17.78;46.37;102343.31;1852862;77;20366;-62
2021/11/12 07:14:08;;;;;;;;;;;;;;;18.03;46.56;102336.44;1852949;77;20393;-63
2021/11/12 07:16:32;;;;;;;;;;;;;;;18.45;46.89;102330.06;1849393;77;20124;-63
2021/11/12 07:19:01;;;;;;;;;;;;;;;18.96;46.39;102331.69;1844302;78;20159;-63
2021/11/12 07:21:29;;;;;;;;;;;;;;;19.34;45.76;102326.69;1844246;78;20170;-63
2021/11/12 07:23:57;;;;;;;;;;;;;;;19.48;45.93;102322.37;1844263;78;20115;-63
2021/11/12 07:26:25;;;;;;;;;;;;;;;19.59;45.16;102329.83;1844269;78;20119;-63
2021/11/12 07:28:52;;;;;;;;;;;;;;;19.64;44.78;102321.56;1844293;78;20116;-63
2021/11/12 07:31:20;;;;;;;;;;;;;;;19.63;43.83;102318.03;1844193;78;20233;-63
2021/11/12 07:33:48;;;;;;;;;;;;;;;19.79;43.47;102314.58;1844256;78;20100;-63
2021/11/12 07:36:21;;;;;;;;;;;;;;;20.18;43.40;102310.73;1844406;78;20120;-63
2021/11/12 07:38:59;;;;;;;;;;;;;;;20.73;43.66;102307.67;1844409;78;20112;-62
2021/11/12 07:41:27;;;;;;;;;;;;;;;20.31;45.09;102305.08;1843074;78;20123;-63
2021/11/12 07:49:13;;;;;;;;;;;;;;;22.05;44.14;102294.87;1844384;78;20171;-62
2021/11/12 07:51:42;;;;;;;;;;;;;;;22.77;43.94;102284.50;1844342;78;20111;-63
2021/11/12 07:54:10;;;;;;;;;;;;;;;23.39;43.45;102275.38;1844362;78;20193;-63
2021/11/12 07:56:38;;;;;;;;;;;;;;;23.84;42.92;102274.48;1844409;78;20119;-62
2021/11/12 07:59:05;;;;;;;;;;;;;;;24.21;42.64;102273.17;1844367;78;20120;-62
2021/11/12 08:01:33;;;;;;;;;;;;;;;24.59;42.67;102269.53;1844333;78;20116;-63
2021/11/12 08:04:03;;;;;;;;;;;;;;;24.71;42.44;102266.39;1844411;78;20103;-62
2021/11/12 08:06:30;;;;;;;;;;;;;;;24.98;41.87;102260.76;1844309;78;20378;-62
2021/11/12 08:09:06;;;;;;;;;;;;;;;24.94;40.75;102259.28;1844362;78;20375;-63
2021/11/12 08:12:11;;;;;;;;;;;;;;;25.22;41.05;102261.20;1843080;78;20146;-63
2021/11/12 08:19:40;;;;;;;;;;;;;;;25.74;40.40;102243.63;1852900;77;20449;-62
2021/11/12 08:22:16;;;;;;;;;;;;;;;25.92;40.27;102237.75;1852075;77;20146;-62
2021/11/12 08:27:26;;;;;;;;;;;;;;;25.93;39.04;102231.39;1853064;77;20115;-62
2021/11/12 08:35:00;;;;;;;;;;;;;;;26.51;38.11;102219.84;1852972;77;20398;-63
2021/11/12 08:37:40;;;;;;;;;;;;;;;25.32;39.61;102221.78;1851876;77;20115;-62
2021/11/12 08:40:11;;;;;;;;;;;;;;;23.92;40.43;102217.44;1851575;77;20171;-63
2021/11/12 08:42:37;;;;;;;;;;;;;;;23.10;41.58;102211.55;1851784;77;20150;-62
2021/11/12 08:47:41;;;;;;;;;;;;;;;22.93;42.03;102201.94;1852938;77;20147;-63
2021/11/12 08:50:15;;;;;;;;;;;;;;;23.91;39.81;102197.40;1852964;77;20116;-62
2021/11/12 08:52:40;;;;;;;;;;;;;;;24.95;38.76;102185.54;1852145;77;20213;-62
2021/11/12 08:55:08;;;;;;;;;;;;;;;24.35;39.18;102189.23;1853151;77;20416;-62
2021/11/12 08:57:36;;;;;;;;;;;;;;;24.16;38.63;102182.52;1853116;77;20107;-63
2021/11/12 09:00:05;;;;;;;;;;;;;;;24.65;36.39;102176.15;1852932;77;20112;-63
2021/11/12 09:02:33;;;;;;;;;;;;;;;25.00;33.97;102160.45;1852999;77;20381;-62
2021/11/12 09:05:01;;;;;;;;;;;;;;;24.79;33.69;102163.48;1852860;77;20116;-63
2021/11/12 09:07:30;;;;;;;;;;;;;;;24.47;34.44;102170.78;1852933;77;20146;-62
2021/11/12 09:09:57;;;;;;;;;;;;;;;23.07;36.22;102164.28;1852927;77;20408;-63
2021/11/12 09:12:26;;;;;;;;;;;;;;;23.36;35.15;102158.67;1852914;77;20107;-63
2021/11/12 09:14:56;;;;;;;;;;;;;;;22.81;36.06;102157.12;1852958;77;20123;-62
2021/11/12 09:17:26;;;;;;;;;;;;;;;21.47;38.36;102153.30;1852811;77;20374;-63
2021/11/12 09:20:01;;;;;;;;;;;;;;;20.66;39.87;102155.08;1853002;77;20155;-62
2021/11/12 09:22:48;;;;;;;;;;;;;;;21.96;38.69;102143.45;1850113;77;20449;-62
2021/11/12 09:25:16;;;;;;;;;;;;;;;21.79;38.82;102151.73;1850078;78;20122;-63
2021/11/12 09:27:44;;;;;;;;;;;;;;;20.53;38.54;102147.37;1850052;78;20123;-62
2021/11/12 09:30:13;;;;;;;;;;;;;;;19.81;40.13;102137.66;1850000;78;20192;-62
2021/11/12 09:32:41;;;;;;;;;;;;;;;20.96;39.00;102130.09;1850066;77;20123;-62
2021/11/12 09:35:10;;;;;;;;;;;;;;;22.35;35.97;102127.08;1850050;78;20143;-62
2021/11/12 09:37:37;;;;;;;;;;;;;;;22.42;33.80;102114.58;1850054;77;20135;-62
2021/11/12 09:40:06;;;;;;;;;;;;;;;22.72;34.58;102123.23;1850069;78;20119;-63
2021/11/12 09:42:35;;;;;;;;;;;;;;;23.50;34.23;102123.61;1849943;78;20162;-62
2021/11/12 09:45:04;;;;;;;;;;;;;;;23.91;33.96;102123.43;1850072;78;20444;-62
2021/11/12 09:47:32;;;;;;;;;;;;;;;24.38;32.97;102122.56;1850044;78;20111;-62
2021/11/12 09:50:01;;;;;;;;;;;;;;;24.54;32.68;102119.56;1850046;76;20107;-62
2021/11/12 09:52:31;;;;;;;;;;;;;;;24.56;32.29;102116.77;1850698;76;20123;-62
2021/11/12 09:55:00;;;;;;;;;;;;;;;24.89;32.45;102094.42;1849988;78;20131;-63
2021/11/12 09:57:30;;;;;;;;;;;;;;;25.23;32.49;102114.21;1850042;77;20119;-62
2021/11/12 09:59:59;;;;;;;;;;;;;;;25.40;31.53;102117.40;1850125;78;20147;-62
2021/11/12 10:02:29;;;;;;;;;;;;;;;25.71;31.59;102106.33;1850021;78;20393;-62
2021/11/12 10:04:57;;;;;;;;;;;;;;;25.95;31.87;102109.34;1850330;78;20123;-62
2021/11/12 10:07:26;;;;;;;;;;;;;;;26.12;30.95;102103.41;1850165;77;20161;-62
2021/11/12 10:10:05;;;;;;;;;;;;;;;25.49;31.03;102103.17;1849997;78;20197;-62
2021/11/12 10:12:40;;;;;;;;;;;;;;;25.73;31.18;102100.31;1850057;78;20177;-63
2021/11/12 10:15:14;;;;;;;;;;;;;;;25.53;30.91;102106.48;1850021;78;20119;-62
2021/11/12 10:17:43;;;;;;;;;;;;;;;24.65;29.68;102100.75;1850000;78;20111;-62
2021/11/12 10:20:12;;;;;;;;;;;;;;;24.59;30.85;102096.34;1849987;76;20217;-62
2021/11/12 10:22:43;;;;;;;;;;;;;;;24.66;31.15;102098.44;1841418;78;20407;-62
2021/11/12 10:25:10;;;;;;;;;;;;;;;24.85;31.70;102102.39;1838869;76;20122;-63
2021/11/12 10:27:38;;;;;;;;;;;;;;;24.62;30.40;102094.27;1838808;78;20161;-62
2021/11/12 10:30:14;;;;;;;;;;;;;;;23.88;31.15;102105.20;1838828;77;20145;-62
2021/11/12 10:32:42;;;;;;;;;;;;;;;23.60;31.17;102100.09;1838814;78;20197;-62
2021/11/12 10:35:11;;;;;;;;;;;;;;;23.07;32.02;102091.75;1838847;78;20149;-62
2021/11/12 10:37:40;;;;;;;;;;;;;;;22.88;32.13;102096.66;1839531;77;20118;-62
2021/11/12 10:40:12;;;;;;;;;;;;;;;23.02;32.27;102089.84;1838937;78;20123;-62
2021/11/12 10:42:41;;;;;;;;;;;;;;;23.00;32.05;102084.17;1838795;78;20118;-62
2021/11/12 10:45:15;;;;;;;;;;;;;;;22.65;32.31;102085.69;1839123;76;20122;-62
2021/11/12 10:47:47;;;;;;;;;;;;;;;22.71;32.56;102075.86;1838921;77;20382;-63
2021/11/12 10:50:16;;;;;;;;;;;;;;;22.40;32.45;102066.38;1838964;78;20153;-62
2021/11/12 10:52:44;;;;;;;;;;;;;;;22.07;33.02;102081.55;1838733;78;20157;-62
2021/11/12 10:55:17;;;;;;;;;;;;;;;21.85;33.46;102074.06;1838883;77;20119;-62
2021/11/12 10:57:55;;;;;;;;;;;;;;;21.81;33.83;102076.08;1838893;77;20224;-62
2021/11/12 11:00:24;;;;;;;;;;;;;;;21.90;33.89;102075.48;1838687;78;20479;-62
2021/11/12 11:02:54;;;;;;;;;;;;;;;21.73;34.24;102073.05;1838797;78;20149;-62
2021/11/12 11:05:23;;;;;;;;;;;;;;;21.52;34.63;102069.44;1838704;77;20145;-62
2021/11/12 11:07:52;;;;;;;;;;;;;;;21.40;34.67;102071.55;1838683;77;20153;-63
2021/11/12 11:10:24;;;;;;;;;;;;;;;21.13;35.33;102066.12;1838730;78;20177;-63
2021/11/12 11:12:52;;;;;;;;;;;;;;;20.88;35.63;102056.95;1839273;77;20123;-62
2021/11/12 11:15:24;;;;;;;;;;;;;;;20.56;36.20;102075.77;1838848;78;20134;-62
2021/11/12 11:18:07;;;;;;;;;;;;;;;20.20;36.83;102066.80;1838847;78;20126;-62
2021/11/12 11:20:35;;;;;;;;;;;;;;;19.99;37.31;102065.77;1838736;78;20118;-62
2021/11/12 11:23:03;;;;;;;;;;;;;;;20.26;37.10;102070.45;1846541;78;20556;-62
2021/11/12 11:25:31;;;;;;;;;;;;;;;20.39;36.86;102060.73;1850031;78;20123;-64
2021/11/12 11:28:02;;;;;;;;;;;;;;;20.38;36.78;102056.36;1850021;78;20154;-62
2021/11/12 11:30:30;;;;;;;;;;;;;;;20.32;37.00;102069.22;1849995;78;20154;-62
2021/11/12 11:32:58;;;;;;;;;;;;;;;20.09;37.32;102067.91;1849933;77;20119;-62
2021/11/12 11:35:25;;;;;;;;;;;;;;;19.80;37.82;102067.77;1850147;78;20119;-62
2021/11/12 11:37:54;;;;;;;;;;;;;;;19.33;38.38;102064.11;1849992;78;20212;-62
2021/11/12 11:40:22;;;;;;;;;;;;;;;19.00;38.67;102070.81;1849997;78;20111;-63
2021/11/12 11:42:50;;;;;;;;;;;;;;;18.88;39.35;102063.82;1849969;78;20115;-63
2021/11/12 11:45:18;;;;;;;;;;;;;;;18.54;39.91;102062.05;1850010;78;20153;-62
2021/11/12 11:47:47;;;;;;;;;;;;;;;18.48;40.20;102061.89;1849951;78;20197;-62
2021/11/12 11:50:22;;;;;;;;;;;;;;;18.31;40.75;102059.20;1849967;76;20123;-62
2021/11/12 11:52:50;;;;;;;;;;;;;;;17.97;41.49;102062.23;1850006;78;20369;-62
2021/11/12 11:55:31;;;;;;;;;;;;;;;17.58;41.98;102064.53;1850127;78;20119;-62
2021/11/12 11:58:17;;;;;;;;;;;;;;;16.87;43.35;102063.76;1850046;77;20412;-62
2021/11/12 12:00:47;;;;;;;;;;;;;;;16.18;44.56;102074.68;1849970;78;20150;-63
2021/11/12 12:03:23;;;;;;;;;;;;;;;15.63;45.69;102074.59;1849953;78;20381;-62
2021/11/12 12:05:52;;;;;;;;;;;;;;;15.38;46.15;102076.46;1849998;78;20111;-62
2021/11/12 12:08:27;;;;;;;;;;;;;;;15.29;46.49;102076.37;1851262;76;20111;-62
2021/11/12 12:11:13;;;;;;;;;;;;;;;15.15;47.07;102076.02;1849954;78;20398;-63
2021/11/12 12:13:40;;;;;;;;;;;;;;;14.99;47.63;102069.92;1850016;78;20107;-63
2021/11/12 12:16:09;;;;;;;;;;;;;;;14.96;47.65;102076.69;1849984;78;20115;-62
2021/11/12 12:18:38;;;;;;;;;;;;;;;14.90;47.72;102078.21;1849933;78;20145;-63
2021/11/12 12:21:23;;;;;;;;;;;;;;;14.75;48.10;102071.67;1849935;76;20202;-63
2021/11/12 12:35:15;;;;;;;;;;;;;;;14.36;48.70;102060.64;1849957;78;20119;-63
2021/11/12 12:41:19;;;;;;;;;;;;;;;14.26;49.15;102060.95;1850034;78;20166;-63
2021/11/12 13:20:21;;;;;;;;;;;;;;;13.22;53.20;102044.33;1849975;78;20166;-63
2021/11/12 13:23:10;;;;;;;;;;;;;;;13.12;53.44;102060.92;1848072;77;20153;-63
2021/11/12 13:25:45;;;;;;;;;;;;;;;13.05;53.50;102060.22;1839012;76;20119;-63
2021/11/12 13:28:15;;;;;;;;;;;;;;;13.02;53.64;102056.36;1838773;78;20161;-63
2021/11/12 13:30:44;;;;;;;;;;;;;;;12.94;53.81;102061.84;1838762;78;20102;-62
2021/11/12 13:33:28;;;;;;;;;;;;;;;12.85;54.25;102061.23;1838722;78;20123;-63
2021/11/12 13:35:57;;;;;;;;;;;;;;;12.75;55.26;102050.91;1838722;78;20118;-64
2021/11/12 13:38:26;;;;;;;;;;;;;;;12.71;54.82;102065.13;1838877;78;20216;-63
2021/11/12 13:40:56;;;;;;;;;;;;;;;12.66;54.89;102063.52;1840030;77;20188;-62
2021/11/12 13:43:25;;;;;;;;;;;;;;;12.56;55.14;102065.55;1838990;77;20126;-62
2021/11/12 13:45:57;;;;;;;;;;;;;;;12.48;55.21;102067.04;1838713;77;20123;-63
2021/11/12 13:48:25;;;;;;;;;;;;;;;12.43;55.14;102065.42;1838714;78;20162;-63
2021/11/12 13:50:55;;;;;;;;;;;;;;;12.35;55.78;102067.80;1838744;78;20114;-62
2021/11/12 13:53:27;;;;;;;;;;;;;;;12.30;55.87;102067.08;1838785;78;20149;-62
2021/11/12 13:55:55;;;;;;;;;;;;;;;12.26;56.10;102064.53;1838764;77;20381;-61
2021/11/12 13:58:25;;;;;;;;;;;;;;;12.19;55.92;102065.16;1838784;78;20127;-62
2021/11/12 14:00:53;;;;;;;;;;;;;;;12.13;55.97;102067.47;1838968;77;20220;-62
2021/11/12 14:03:34;;;;;;;;;;;;;;;12.07;56.00;102069.41;1838716;78;20385;-61
2021/11/12 14:06:10;;;;;;;;;;;;;;;12.02;55.97;102068.64;1838721;78;20122;-62
2021/11/12 14:08:40;;;;;;;;;;;;;;;11.96;56.18;102063.92;1838851;78;20119;-62
2021/11/12 14:11:25;;;;;;;;;;;;;;;11.86;56.58;102062.38;1838838;78;20122;-62
2021/11/12 14:13:55;;;;;;;;;;;;;;;11.80;57.06;102063.83;1838768;78;20131;-61
2021/11/12 14:16:29;;;;;;;;;;;;;;;11.74;57.27;102065.30;1838836;78;20118;-62
2021/11/12 14:19:28;;;;;;;;;;;;;;;11.70;57.33;102062.32;1838746;78;20126;-61
2021/11/12 14:21:47;;;;;;;;;;;;;;;11.66;57.21;102065.94;1842522;77;20147;-62
2021/11/12 14:26:53;;;;;;;;;;;;;;;11.48;56.86;102068.06;1839078;77;20197;-62
2021/11/12 14:29:44;;;;;;;;;;;;;;;11.43;56.99;102064.64;1839005;77;20118;-62
2021/11/12 14:32:27;;;;;;;;;;;;;;;11.39;56.98;102066.94;1839883;77;20122;-62
2021/11/12 14:37:50;;;;;;;;;;;;;;;11.23;57.00;102073.42;1838739;78;20119;-62
2021/11/12 14:40:09;;;;;;;;;;;;;;;11.14;56.99;102074.47;1858616;77;20167;-60
2021/11/12 14:42:47;;;;;;;;;;;;;;;11.04;57.12;102079.06;1869515;77;20256;-60
2021/11/12 14:45:11;;;;;;;;;;;;;;;10.95;57.11;102080.11;1868649;77;20143;-60
2021/11/12 14:47:45;;;;;;;;;;;;;;;10.88;57.12;102085.53;1869705;77;20157;-60
2021/11/12 14:50:26;;;;;;;;;;;;;;;10.77;57.14;102084.41;1869458;77;20147;-61
2021/11/12 14:53:02;;;;;;;;;;;;;;;10.66;57.25;102084.63;1868895;77;20117;-60
2021/11/12 14:55:30;;;;;;;;;;;;;;;10.61;57.30;102086.47;1869708;77;20148;-61
2021/11/12 14:57:58;;;;;;;;;;;;;;;10.57;57.37;102090.05;1869798;77;20397;-61
2021/11/12 15:00:27;;;;;;;;;;;;;;;10.51;57.33;102086.19;1869594;77;20120;-62
2021/11/12 15:02:56;;;;;;;;;;;;;;;10.43;57.39;102095.55;1869569;77;20117;-62
2021/11/12 15:05:25;;;;;;;;;;;;;;;10.35;57.46;102090.41;1869604;77;20113;-61
2021/11/12 15:08:01;;;;;;;;;;;;;;;10.32;57.50;102095.72;1869610;77;20120;-61
2021/11/12 15:10:29;;;;;;;;;;;;;;;10.27;57.50;102104.55;1868660;77;20144;-61
2021/11/12 15:12:54;;;;;;;;;;;;;;;10.22;57.51;102107.27;1869004;77;20121;-60
2021/11/12 15:15:22;;;;;;;;;;;;;;;10.17;57.58;102110.41;1869165;77;20116;-60
2021/11/12 15:17:53;;;;;;;;;;;;;;;10.11;57.64;102107.89;1869527;77;20128;-60
2021/11/12 15:20:20;;;;;;;;;;;;;;;10.05;57.73;102114.98;1869478;77;20155;-61
2021/11/12 15:30:58;;;;;;;;;;;;;;;9.85;57.95;102119.66;1872523;77;20149;-58
2021/11/12 15:33:19;;;;;;;;;;;;;;;9.82;58.03;102118.37;1872022;76;20116;-58
2021/11/12 15:35:48;;;;;;;;;;;;;;;9.79;58.16;102119.72;1872318;77;20143;-59
2021/11/12 15:38:21;;;;;;;;;;;;;;;9.73;58.26;102124.63;1872638;77;20429;-57
2021/11/12 15:40:56;;;;;;;;;;;;;;;9.68;58.37;102125.58;1869759;76;20124;-59
2021/11/12 15:43:22;;;;;;;;;;;;;;;9.61;58.49;102123.49;1840563;78;20385;-60
2021/11/12 15:48:22;;;;;;;;;;;;;;;9.51;58.71;102126.66;1872935;77;20406;-60
2021/11/12 15:58:58;;;;;;;;;;;;;;;9.28;59.11;102127.81;1849083;77;20295;-59
2021/11/12 16:01:47;;;;;;;;;;;;;;;9.24;59.17;102132.69;1854348;77;20155;-60
2021/11/12 16:14:26;;;;;;;;;;;;;;;9.05;59.58;102133.76;1841369;78;20149;-59
2021/11/12 16:22:40;;;;;;;;;;;;;;;8.87;59.87;102130.86;1841395;78;20123;-59
2021/11/12 16:27:31;;;;;;;;;;;;;;;8.75;60.01;102120.05;1849932;78;20107;-61
2021/11/12 16:30:04;;;;;;;;;;;;;;;8.69;60.08;102114.86;1849926;78;20152;-59
2021/11/12 16:32:30;;;;;;;;;;;;;;;8.65;60.09;102119.69;1849377;77;20111;-59
2021/11/12 16:34:59;;;;;;;;;;;;;;;8.60;60.13;102125.45;1849965;78;20115;-60
2021/11/12 16:37:28;;;;;;;;;;;;;;;8.53;60.22;102123.75;1849599;78;20127;-61
2021/11/12 16:45:13;;;;;;;;;;;;;;;8.40;60.78;102110.69;1849468;78;20123;-58
2021/11/12 16:50:26;;;;;;;;;;;;;;;8.38;60.66;102112.45;1849934;78;20145;-59
2021/11/12 17:02:58;;;;;;;;;;;;;;;8.21;61.12;102107.79;1880033;76;20121;-60
2021/11/12 17:19:07;;;;;;;;;;;;;;;7.94;62.27;102103.14;1881290;76;20148;-59
2021/11/12 17:46:21;;;;;;;;;;;;;;;7.46;66.90;102098.59;1896006;74;20251;-60
2021/11/12 17:51:46;;;;;;;;;;;;;;;7.37;67.17;102098.64;1909744;74;20125;-60
2021/11/12 18:02:27;;;;;;;;;;;;;;;7.23;66.17;102107.42;1888380;76;20151;-60
2021/11/12 18:07:36;;;;;;;;;;;;;;;7.14;66.36;102112.69;1892006;76;20413;-60
2021/11/12 21:45:03;;;;;;;;;;;;;;;4.37;71.26;102146.62;1859334;77;20435;-61
2021/11/12 21:47:23;;;;;;;;;;;;;;;4.32;72.25;102142.23;1857489;77;20119;-61
2021/11/12 21:49:51;;;;;;;;;;;;;;;4.27;73.53;102145.22;1859234;77;20110;-62
2021/11/12 21:52:19;;;;;;;;;;;;;;;4.21;73.77;102148.20;1859272;77;20201;-61
2021/11/12 21:54:47;;;;;;;;;;;;;;;4.20;72.78;102153.39;1859118;77;20120;-61
2021/11/12 21:57:16;;;;;;;;;;;;;;;4.18;72.17;102142.94;1859310;77;20385;-62
2021/11/12 21:59:45;;;;;;;;;;;;;;;4.17;72.22;102150.34;1859309;77;20119;-61
2021/11/12 22:02:13;;;;;;;;;;;;;;;4.15;72.12;102148.15;1856190;77;20381;-61
2021/11/12 22:04:41;;;;;;;;;;;;;;;4.13;71.92;102149.88;1850849;78;20114;-61
2021/11/12 22:07:09;;;;;;;;;;;;;;;4.12;72.02;102149.41;1850896;78;20167;-61
2021/11/12 22:09:37;;;;;;;;;;;;;;;4.08;71.99;102149.34;1850998;78;20119;-61
2021/11/12 22:12:05;;;;;;;;;;;;;;;4.04;73.02;102147.16;1850887;78;20111;-61
2021/11/12 22:14:33;;;;;;;;;;;;;;;4.00;72.67;102147.97;1850933;78;20119;-61
2021/11/12 22:17:01;;;;;;;;;;;;;;;3.94;72.61;102143.56;1850845;78;20182;-61
2021/11/12 22:19:29;;;;;;;;;;;;;;;3.91;72.53;102143.55;1850957;78;20118;-61
2021/11/12 22:21:58;;;;;;;;;;;;;;;3.91;72.78;102147.87;1850972;78;20162;-62
2021/11/12 22:24:26;;;;;;;;;;;;;;;3.91;72.68;102143.95;1850924;78;20119;-61
2021/11/12 22:26:54;;;;;;;;;;;;;;;3.91;72.57;102142.66;1850922;78;20186;-61
2021/11/12 22:29:23;;;;;;;;;;;;;;;3.89;72.25;102136.55;1850926;78;20170;-61
2021/11/12 22:31:51;;;;;;;;;;;;;;;3.89;72.07;102143.94;1850861;78;20201;-61
2021/11/12 22:34:18;;;;;;;;;;;;;;;3.88;71.91;102146.11;1850942;78;20123;-61